createdAt,value
2023-01-11T00:01:51.700Z,5.90
2023-01-11T00:16:52.348Z,5.50
2023-01-11T00:31:53.161Z,5.60
2023-01-11T00:46:53.638Z,5.90
2023-01-11T01:01:54.465Z,4.40
2023-01-11T01:16:55.183Z,5.00
2023-01-11T01:31:55.954Z,5.30
2023-01-11T01:46:56.579Z,5.00
2023-01-11T02:01:57.327Z,4.80
2023-01-11T02:16:58.017Z,4.70
2023-01-11T02:31:58.413Z,5.10
2023-01-11T02:46:59.190Z,1.30
2023-01-11T03:02:00.070Z,1.10
2023-01-11T03:17:00.787Z,1.20
2023-01-11T03:32:01.345Z,1.20
2023-01-11T03:47:01.854Z,0.90
2023-01-11T04:02:02.500Z,0.90
2023-01-11T04:17:02.857Z,1.20
2023-01-11T04:32:03.323Z,0.90
2023-01-11T04:47:04.115Z,0.90
2023-01-11T06:05:52.436Z,2.00
2023-01-11T06:20:53.646Z,3.20
2023-01-11T06:36:01.375Z,5.00
2023-01-11T06:50:54.052Z,6.20
2023-01-11T07:05:54.497Z,2.20
2023-01-11T07:20:55.375Z,1.60
2023-01-11T07:35:55.787Z,1.90
2023-01-11T07:50:56.731Z,1.60
2023-01-11T08:05:56.869Z,1.70
2023-01-11T08:20:57.644Z,1.00
2023-01-11T08:35:58.320Z,1.20
2023-01-11T08:50:59.108Z,0.90
2023-01-11T09:06:06.903Z,0.90
2023-01-11T09:21:07.922Z,1.90
2023-01-11T09:36:00.736Z,1.10
2023-01-11T09:51:01.398Z,1.00
2023-01-11T10:06:01.861Z,1.10
2023-01-11T10:21:02.550Z,1.40
2023-01-11T10:36:03.193Z,1.20
2023-01-11T10:51:03.922Z,1.50
2023-01-11T11:06:04.626Z,1.70
2023-01-11T11:21:05.283Z,0.50
2023-01-11T11:36:05.587Z,0.10
2023-01-11T11:51:06.207Z,0.10
2023-01-11T12:06:06.695Z,0.20
2023-01-11T12:21:07.161Z,0.10
2023-01-11T12:36:08.168Z,0.50
2023-01-11T12:51:08.483Z,0.20
2023-01-11T13:06:09.276Z,0.30
2023-01-11T13:21:18.478Z,1.20
2023-01-11T13:36:22.291Z,0.60
2023-01-11T13:51:10.918Z,0.70
2023-01-11T14:06:11.450Z,0.50
2023-01-11T15:21:49.359Z,0.70
2023-01-11T16:12:21.127Z,1.50
2023-01-11T22:21:41.898Z,3.20
